sensor_id;sensor_type;location;lat;lon;timestamp;pressure;altitude;pressure_sealevel;temperature;humidity
49709;BME280;35601;55.902;13.606;2023-07-29T00:02:07;99885.11;;;9.01;73.84
49709;BME280;35601;55.902;13.606;2023-07-29T00:04:32;99881.64;;;8.78;72.74
49709;BME280;35601;55.902;13.606;2023-07-29T00:06:58;99881.30;;;8.75;72.67
49709;BME280;35601;55.902;13.606;2023-07-29T00:09:23;99881.72;;;8.66;73.17
49709;BME280;35601;55.902;13.606;2023-07-29T00:11:49;99883.37;;;8.65;72.71
49709;BME280;35601;55.902;13.606;2023-07-29T00:14:14;99884.24;;;8.64;71.73
49709;BME280;35601;55.902;13.606;2023-07-29T00:16:39;99883.66;;;8.57;71.50
49709;BME280;35601;55.902;13.606;2023-07-29T00:19:05;99885.06;;;8.45;72.52
49709;BME280;35601;55.902;13.606;2023-07-29T00:21:30;99885.20;;;8.41;73.49
49709;BME280;35601;55.902;13.606;2023-07-29T00:23:55;99882.53;;;8.41;72.50
49709;BME280;35601;55.902;13.606;2023-07-29T00:26:20;99883.21;;;8.42;72.10
49709;BME280;35601;55.902;13.606;2023-07-29T00:28:46;99882.84;;;8.21;73.56
49709;BME280;35601;55.902;13.606;2023-07-29T00:31:11;99883.66;;;8.49;74.76
49709;BME280;35601;55.902;13.606;2023-07-29T00:33:36;99884.09;;;8.42;75.23
49709;BME280;35601;55.902;13.606;2023-07-29T00:36:02;99885.19;;;8.35;74.50
49709;BME280;35601;55.902;13.606;2023-07-29T00:38:27;99883.20;;;8.39;73.67
49709;BME280;35601;55.902;13.606;2023-07-29T00:40:52;99883.54;;;8.37;73.48
49709;BME280;35601;55.902;13.606;2023-07-29T00:43:17;99883.98;;;8.17;73.49
49709;BME280;35601;55.902;13.606;2023-07-29T00:45:44;99887.94;;;8.41;72.71
49709;BME280;35601;55.902;13.606;2023-07-29T00:48:08;99888.08;;;8.64;72.46
49709;BME280;35601;55.902;13.606;2023-07-29T00:50:33;99883.52;;;8.53;72.75
49709;BME280;35601;55.902;13.606;2023-07-29T00:52:58;99882.82;;;8.26;73.51
49709;BME280;35601;55.902;13.606;2023-07-29T00:55:24;99878.37;;;8.51;73.74
49709;BME280;35601;55.902;13.606;2023-07-29T00:57:50;99878.69;;;8.51;74.15
49709;BME280;35601;55.902;13.606;2023-07-29T01:00:14;99878.83;;;8.30;74.01
49709;BME280;35601;55.902;13.606;2023-07-29T01:02:39;99872.10;;;8.31;72.60
49709;BME280;35601;55.902;13.606;2023-07-29T01:05:05;99871.35;;;8.15;73.64
49709;BME280;35601;55.902;13.606;2023-07-29T01:07:39;99868.22;;;7.79;74.71
49709;BME280;35601;55.902;13.606;2023-07-29T01:10:00;99866.72;;;8.05;74.39
49709;BME280;35601;55.902;13.606;2023-07-29T01:12:24;99863.79;;;7.98;75.05
49709;BME280;35601;55.902;13.606;2023-07-29T01:14:52;99866.27;;;7.80;74.94
49709;BME280;35601;55.902;13.606;2023-07-29T01:17:15;99869.07;;;8.10;74.77
49709;BME280;35601;55.902;13.606;2023-07-29T01:19:43;99868.15;;;8.34;74.89
49709;BME280;35601;55.902;13.606;2023-07-29T01:22:03;99867.73;;;8.39;74.59
49709;BME280;35601;55.902;13.606;2023-07-29T01:24:27;99866.78;;;8.09;74.79
49709;BME280;35601;55.902;13.606;2023-07-29T01:26:52;99865.81;;;8.31;74.82
49709;BME280;35601;55.902;13.606;2023-07-29T01:29:18;99864.98;;;8.09;74.61
49709;BME280;35601;55.902;13.606;2023-07-29T01:31:44;99864.88;;;8.12;74.25
49709;BME280;35601;55.902;13.606;2023-07-29T01:34:14;99862.98;;;7.86;74.08
49709;BME280;35601;55.902;13.606;2023-07-29T01:36:34;99862.77;;;8.12;74.37
49709;BME280;35601;55.902;13.606;2023-07-29T01:38:59;99864.23;;;8.26;74.38
49709;BME280;35601;55.902;13.606;2023-07-29T01:41:25;99864.95;;;8.12;73.73
49709;BME280;35601;55.902;13.606;2023-07-29T01:43:50;99864.29;;;7.89;72.96
49709;BME280;35601;55.902;13.606;2023-07-29T01:46:15;99864.71;;;8.22;74.32
49709;BME280;35601;55.902;13.606;2023-07-29T01:48:41;99863.38;;;8.25;74.37
49709;BME280;35601;55.902;13.606;2023-07-29T01:51:06;99864.72;;;8.22;74.57
49709;BME280;35601;55.902;13.606;2023-07-29T01:53:31;99864.76;;;8.29;74.00
49709;BME280;35601;55.902;13.606;2023-07-29T01:55:56;99862.97;;;8.31;73.18
49709;BME280;35601;55.902;13.606;2023-07-29T01:58:21;99862.33;;;7.98;73.81
49709;BME280;35601;55.902;13.606;2023-07-29T02:00:47;99863.15;;;7.98;74.05
49709;BME280;35601;55.902;13.606;2023-07-29T02:03:12;99860.39;;;7.94;74.40
49709;BME280;35601;55.902;13.606;2023-07-29T02:05:37;99859.21;;;8.14;74.59
49709;BME280;35601;55.902;13.606;2023-07-29T02:08:03;99853.32;;;7.98;74.28
49709;BME280;35601;55.902;13.606;2023-07-29T02:10:28;99851.32;;;7.99;74.25
49709;BME280;35601;55.902;13.606;2023-07-29T02:12:53;99851.12;;;8.22;74.28
49709;BME280;35601;55.902;13.606;2023-07-29T02:15:18;99850.16;;;8.20;74.13
49709;BME280;35601;55.902;13.606;2023-07-29T02:17:44;99849.52;;;7.73;74.77
49709;BME280;35601;55.902;13.606;2023-07-29T02:20:10;99850.53;;;7.91;74.48
49709;BME280;35601;55.902;13.606;2023-07-29T02:22:34;99847.83;;;7.97;74.60
49709;BME280;35601;55.902;13.606;2023-07-29T02:24:59;99845.63;;;7.83;74.71
49709;BME280;35601;55.902;13.606;2023-07-29T02:27:25;99843.60;;;7.87;74.33
49709;BME280;35601;55.902;13.606;2023-07-29T02:29:50;99842.03;;;7.93;74.21
49709;BME280;35601;55.902;13.606;2023-07-29T02:32:15;99842.29;;;7.72;74.32
49709;BME280;35601;55.902;13.606;2023-07-29T02:34:40;99838.42;;;8.01;73.60
49709;BME280;35601;55.902;13.606;2023-07-29T02:37:06;99836.20;;;7.65;74.14
49709;BME280;35601;55.902;13.606;2023-07-29T02:39:31;99836.69;;;7.89;74.28
49709;BME280;35601;55.902;13.606;2023-07-29T02:41:56;99836.42;;;7.78;74.85
49709;BME280;35601;55.902;13.606;2023-07-29T02:44:22;99834.79;;;7.56;74.99
49709;BME280;35601;55.902;13.606;2023-07-29T02:46:47;99834.14;;;7.85;74.80
49709;BME280;35601;55.902;13.606;2023-07-29T02:49:12;99832.48;;;7.81;75.17
49709;BME280;35601;55.902;13.606;2023-07-29T02:51:37;99832.64;;;7.86;75.00
49709;BME280;35601;55.902;13.606;2023-07-29T02:54:03;99834.86;;;7.81;75.19
49709;BME280;35601;55.902;13.606;2023-07-29T02:56:28;99835.70;;;7.70;75.69
49709;BME280;35601;55.902;13.606;2023-07-29T02:58:53;99836.40;;;7.79;75.28
49709;BME280;35601;55.902;13.606;2023-07-29T03:01:19;99835.72;;;7.74;75.11
49709;BME280;35601;55.902;13.606;2023-07-29T03:03:44;99837.23;;;7.77;75.38
49709;BME280;35601;55.902;13.606;2023-07-29T03:06:10;99838.95;;;8.05;75.25
49709;BME280;35601;55.902;13.606;2023-07-29T03:08:35;99834.59;;;7.72;75.52
49709;BME280;35601;55.902;13.606;2023-07-29T03:11:05;99835.51;;;7.91;75.71
49709;BME280;35601;55.902;13.606;2023-07-29T03:13:25;99834.67;;;8.02;75.60
49709;BME280;35601;55.902;13.606;2023-07-29T03:15:50;99830.89;;;7.85;75.30
49709;BME280;35601;55.902;13.606;2023-07-29T03:18:15;99827.75;;;7.85;75.24
49709;BME280;35601;55.902;13.606;2023-07-29T03:20:41;99829.44;;;7.89;75.35
49709;BME280;35601;55.902;13.606;2023-07-29T03:23:06;99829.58;;;7.68;75.32
49709;BME280;35601;55.902;13.606;2023-07-29T03:25:31;99827.43;;;8.00;75.43
49709;BME280;35601;55.902;13.606;2023-07-29T03:27:56;99826.74;;;8.06;75.28
49709;BME280;35601;55.902;13.606;2023-07-29T03:30:22;99828.41;;;8.10;75.48
49709;BME280;35601;55.902;13.606;2023-07-29T03:32:48;99828.90;;;8.17;75.79
49709;BME280;35601;55.902;13.606;2023-07-29T03:35:12;99828.23;;;8.21;76.07
49709;BME280;35601;55.902;13.606;2023-07-29T03:37:37;99822.60;;;8.15;76.85
49709;BME280;35601;55.902;13.606;2023-07-29T03:40:04;99826.93;;;7.94;77.51
49709;BME280;35601;55.902;13.606;2023-07-29T03:42:28;99833.23;;;8.24;77.81
49709;BME280;35601;55.902;13.606;2023-07-29T03:44:53;99838.70;;;7.87;77.96
49709;BME280;35601;55.902;13.606;2023-07-29T03:47:19;99839.56;;;8.25;78.11
49709;BME280;35601;55.902;13.606;2023-07-29T03:49:44;99833.48;;;8.38;77.93
49709;BME280;35601;55.902;13.606;2023-07-29T03:52:09;99832.43;;;8.25;77.77
49709;BME280;35601;55.902;13.606;2023-07-29T03:54:34;99832.87;;;8.32;77.57
49709;BME280;35601;55.902;13.606;2023-07-29T03:57:00;99833.59;;;8.76;78.17
49709;BME280;35601;55.902;13.606;2023-07-29T03:59:25;99829.63;;;8.36;77.79
49709;BME280;35601;55.902;13.606;2023-07-29T04:01:50;99830.05;;;8.67;77.43
49709;BME280;35601;55.902;13.606;2023-07-29T04:04:16;99828.05;;;7.52;77.35
49709;BME280;35601;55.902;13.606;2023-07-29T04:06:41;99826.15;;;8.87;76.84
49709;BME280;35601;55.902;13.606;2023-07-29T04:09:06;99826.80;;;8.63;76.89
49709;BME280;35601;55.902;13.606;2023-07-29T04:11:31;99826.96;;;8.89;76.95
49709;BME280;35601;55.902;13.606;2023-07-29T04:13:56;99825.11;;;8.75;77.22
49709;BME280;35601;55.902;13.606;2023-07-29T04:16:22;99822.46;;;8.86;78.04
49709;BME280;35601;55.902;13.606;2023-07-29T04:18:47;99821.58;;;9.10;79.63
49709;BME280;35601;55.902;13.606;2023-07-29T04:21:12;99820.98;;;9.65;79.93
49709;BME280;35601;55.902;13.606;2023-07-29T04:23:37;99820.87;;;9.81;79.14
49709;BME280;35601;55.902;13.606;2023-07-29T04:26:02;99813.35;;;10.17;79.27
49709;BME280;35601;55.902;13.606;2023-07-29T04:28:28;99811.47;;;10.33;77.67
49709;BME280;35601;55.902;13.606;2023-07-29T04:30:53;99808.96;;;10.68;76.56
49709;BME280;35601;55.902;13.606;2023-07-29T04:33:18;99808.68;;;11.07;77.52
49709;BME280;35601;55.902;13.606;2023-07-29T04:35:43;99806.32;;;11.33;76.02
49709;BME280;35601;55.902;13.606;2023-07-29T04:38:09;99802.89;;;11.46;73.64
49709;BME280;35601;55.902;13.606;2023-07-29T04:40:34;99804.37;;;11.46;73.02
49709;BME280;35601;55.902;13.606;2023-07-29T04:43:00;99806.02;;;12.21;71.98
49709;BME280;35601;55.902;13.606;2023-07-29T04:45:28;99805.37;;;11.96;71.49
49709;BME280;35601;55.902;13.606;2023-07-29T04:47:50;99800.29;;;12.20;71.16
49709;BME280;35601;55.902;13.606;2023-07-29T04:50:15;99802.19;;;11.52;71.56
49709;BME280;35601;55.902;13.606;2023-07-29T04:52:40;99799.56;;;12.28;71.25
49709;BME280;35601;55.902;13.606;2023-07-29T04:55:06;99798.69;;;12.42;71.38
49709;BME280;35601;55.902;13.606;2023-07-29T04:57:30;99797.43;;;12.56;71.62
49709;BME280;35601;55.902;13.606;2023-07-29T04:59:55;99797.98;;;12.84;71.63
49709;BME280;35601;55.902;13.606;2023-07-29T05:02:20;99798.33;;;13.08;71.16
49709;BME280;35601;55.902;13.606;2023-07-29T05:04:46;99799.62;;;13.32;70.53
49709;BME280;35601;55.902;13.606;2023-07-29T05:07:11;99799.60;;;13.50;70.14
49709;BME280;35601;55.902;13.606;2023-07-29T05:09:36;99804.21;;;13.68;69.82
49709;BME280;35601;55.902;13.606;2023-07-29T05:12:01;99807.00;;;13.32;69.46
49709;BME280;35601;55.902;13.606;2023-07-29T05:14:26;99810.15;;;13.70;70.56
49709;BME280;35601;55.902;13.606;2023-07-29T05:16:52;99808.90;;;14.10;71.58
49709;BME280;35601;55.902;13.606;2023-07-29T05:19:17;99810.40;;;13.82;71.89
49709;BME280;35601;55.902;13.606;2023-07-29T05:21:42;99806.58;;;13.86;72.08
49709;BME280;35601;55.902;13.606;2023-07-29T05:24:07;99806.00;;;13.79;71.15
49709;BME280;35601;55.902;13.606;2023-07-29T05:26:32;99806.97;;;13.70;69.84
49709;BME280;35601;55.902;13.606;2023-07-29T05:28:57;99799.87;;;13.91;69.25
49709;BME280;35601;55.902;13.606;2023-07-29T05:31:23;99807.13;;;13.74;69.10
49709;BME280;35601;55.902;13.606;2023-07-29T05:33:48;99797.46;;;14.00;69.25
49709;BME280;35601;55.902;13.606;2023-07-29T05:36:13;99793.10;;;14.22;69.34
49709;BME280;35601;55.902;13.606;2023-07-29T05:38:38;99795.82;;;14.53;69.01
49709;BME280;35601;55.902;13.606;2023-07-29T05:41:03;99792.96;;;14.83;69.06
49709;BME280;35601;55.902;13.606;2023-07-29T05:43:28;99795.78;;;15.11;68.85
49709;BME280;35601;55.902;13.606;2023-07-29T05:45:53;99801.44;;;15.16;68.47
49709;BME280;35601;55.902;13.606;2023-07-29T05:48:19;99795.99;;;15.09;66.73
49709;BME280;35601;55.902;13.606;2023-07-29T05:50:44;99798.14;;;15.16;66.56
49709;BME280;35601;55.902;13.606;2023-07-29T05:53:09;99794.89;;;15.46;66.02
49709;BME280;35601;55.902;13.606;2023-07-29T05:55:34;99792.26;;;15.56;66.01
49709;BME280;35601;55.902;13.606;2023-07-29T05:58:00;99790.67;;;15.37;66.36
49709;BME280;35601;55.902;13.606;2023-07-29T06:00:25;99789.43;;;15.53;66.22
49709;BME280;35601;55.902;13.606;2023-07-29T06:02:50;99791.59;;;15.50;65.61
49709;BME280;35601;55.902;13.606;2023-07-29T06:05:15;99787.47;;;15.56;64.87
49709;BME280;35601;55.902;13.606;2023-07-29T06:07:40;99790.43;;;15.69;65.32
49709;BME280;35601;55.902;13.606;2023-07-29T06:10:06;99788.97;;;15.73;65.81
49709;BME280;35601;55.902;13.606;2023-07-29T06:12:31;99786.33;;;15.50;65.37
49709;BME280;35601;55.902;13.606;2023-07-29T06:14:56;99783.31;;;16.01;64.28
49709;BME280;35601;55.902;13.606;2023-07-29T06:17:21;99786.16;;;16.17;64.63
49709;BME280;35601;55.902;13.606;2023-07-29T06:19:46;99785.77;;;16.36;64.02
49709;BME280;35601;55.902;13.606;2023-07-29T06:22:12;99784.80;;;16.46;63.46
49709;BME280;35601;55.902;13.606;2023-07-29T06:24:37;99782.14;;;16.68;65.01
49709;BME280;35601;55.902;13.606;2023-07-29T06:27:02;99782.37;;;16.57;63.67
49709;BME280;35601;55.902;13.606;2023-07-29T06:29:27;99784.75;;;16.58;62.87
49709;BME280;35601;55.902;13.606;2023-07-29T06:31:52;99785.13;;;16.80;63.75
49709;BME280;35601;55.902;13.606;2023-07-29T06:34:17;99788.11;;;16.85;64.77
49709;BME280;35601;55.902;13.606;2023-07-29T06:36:42;99792.56;;;16.60;64.12
49709;BME280;35601;55.902;13.606;2023-07-29T06:39:08;99796.38;;;16.60;66.20
49709;BME280;35601;55.902;13.606;2023-07-29T06:41:33;99795.79;;;16.42;66.41
49709;BME280;35601;55.902;13.606;2023-07-29T06:43:58;99795.96;;;16.91;64.93
49709;BME280;35601;55.902;13.606;2023-07-29T06:46:23;99797.11;;;16.65;65.02
49709;BME280;35601;55.902;13.606;2023-07-29T06:48:48;99791.64;;;16.50;64.84
49709;BME280;35601;55.902;13.606;2023-07-29T06:51:13;99790.00;;;16.75;66.26
49709;BME280;35601;55.902;13.606;2023-07-29T06:53:38;99789.42;;;16.54;65.81
49709;BME280;35601;55.902;13.606;2023-07-29T06:56:03;99785.09;;;16.74;65.83
49709;BME280;35601;55.902;13.606;2023-07-29T06:58:28;99781.90;;;16.85;65.88
49709;BME280;35601;55.902;13.606;2023-07-29T07:00:54;99779.73;;;16.83;66.26
49709;BME280;35601;55.902;13.606;2023-07-29T07:03:19;99781.54;;;16.77;66.47
49709;BME280;35601;55.902;13.606;2023-07-29T07:05:44;99785.14;;;17.02;67.42
49709;BME280;35601;55.902;13.606;2023-07-29T07:08:09;99788.69;;;17.12;68.10
49709;BME280;35601;55.902;13.606;2023-07-29T07:10:34;99784.59;;;17.01;67.67
49709;BME280;35601;55.902;13.606;2023-07-29T07:12:59;99780.47;;;17.02;68.44
49709;BME280;35601;55.902;13.606;2023-07-29T07:15:24;99779.59;;;17.13;68.34
49709;BME280;35601;55.902;13.606;2023-07-29T07:17:51;99776.79;;;17.05;68.50
49709;BME280;35601;55.902;13.606;2023-07-29T07:20:15;99770.81;;;17.27;67.62
49709;BME280;35601;55.902;13.606;2023-07-29T07:22:40;99770.90;;;17.38;66.55
49709;BME280;35601;55.902;13.606;2023-07-29T07:25:06;99771.83;;;17.44;67.01
49709;BME280;35601;55.902;13.606;2023-07-29T07:27:30;99771.98;;;17.91;68.54
49709;BME280;35601;55.902;13.606;2023-07-29T07:29:56;99771.95;;;18.02;67.14
49709;BME280;35601;55.902;13.606;2023-07-29T07:32:21;99771.34;;;18.30;67.67
49709;BME280;35601;55.902;13.606;2023-07-29T07:34:46;99764.57;;;18.34;68.41
49709;BME280;35601;55.902;13.606;2023-07-29T07:37:11;99760.54;;;18.25;66.18
49709;BME280;35601;55.902;13.606;2023-07-29T07:39:37;99759.43;;;18.82;67.76
49709;BME280;35601;55.902;13.606;2023-07-29T07:42:03;99761.16;;;19.20;62.86
49709;BME280;35601;55.902;13.606;2023-07-29T07:44:27;99764.20;;;19.48;63.58
49709;BME280;35601;55.902;13.606;2023-07-29T07:46:53;99761.14;;;19.43;60.97
49709;BME280;35601;55.902;13.606;2023-07-29T07:49:18;99760.03;;;19.30;61.61
49709;BME280;35601;55.902;13.606;2023-07-29T07:51:43;99756.73;;;19.63;60.10
49709;BME280;35601;55.902;13.606;2023-07-29T07:54:08;99755.74;;;19.73;59.96
49709;BME280;35601;55.902;13.606;2023-07-29T07:56:33;99754.56;;;19.40;60.13
49709;BME280;35601;55.902;13.606;2023-07-29T07:58:58;99752.91;;;19.12;59.77
49709;BME280;35601;55.902;13.606;2023-07-29T08:01:23;99752.83;;;18.77;61.35
49709;BME280;35601;55.902;13.606;2023-07-29T08:03:48;99753.32;;;18.90;63.22
49709;BME280;35601;55.902;13.606;2023-07-29T08:06:13;99751.20;;;19.06;61.80
49709;BME280;35601;55.902;13.606;2023-07-29T08:08:39;99749.27;;;19.13;62.43
49709;BME280;35601;55.902;13.606;2023-07-29T08:11:04;99746.26;;;18.97;61.51
49709;BME280;35601;55.902;13.606;2023-07-29T08:13:29;99745.84;;;19.14;62.50
49709;BME280;35601;55.902;13.606;2023-07-29T08:15:54;99743.81;;;19.28;64.06
49709;BME280;35601;55.902;13.606;2023-07-29T08:18:19;99743.38;;;19.41;61.01
49709;BME280;35601;55.902;13.606;2023-07-29T08:20:53;99741.59;;;19.32;60.11
49709;BME280;35601;55.902;13.606;2023-07-29T08:23:09;99740.41;;;19.56;62.43
49709;BME280;35601;55.902;13.606;2023-07-29T08:25:34;99738.68;;;19.48;58.89
49709;BME280;35601;55.902;13.606;2023-07-29T08:28:00;99741.55;;;19.78;58.05
49709;BME280;35601;55.902;13.606;2023-07-29T08:30:25;99741.47;;;19.97;59.86
49709;BME280;35601;55.902;13.606;2023-07-29T08:32:50;99743.28;;;20.02;58.71
49709;BME280;35601;55.902;13.606;2023-07-29T08:35:15;99739.13;;;19.99;55.89
49709;BME280;35601;55.902;13.606;2023-07-29T08:37:40;99738.30;;;19.72;55.31
49709;BME280;35601;55.902;13.606;2023-07-29T08:40:06;99733.35;;;19.52;54.49
49709;BME280;35601;55.902;13.606;2023-07-29T08:42:32;99726.67;;;19.42;55.78
49709;BME280;35601;55.902;13.606;2023-07-29T08:44:56;99723.04;;;19.63;57.15
49709;BME280;35601;55.902;13.606;2023-07-29T08:47:20;99718.76;;;19.45;55.79
49709;BME280;35601;55.902;13.606;2023-07-29T08:49:47;99718.87;;;19.46;57.08
49709;BME280;35601;55.902;13.606;2023-07-29T08:52:11;99715.37;;;19.51;56.65
49709;BME280;35601;55.902;13.606;2023-07-29T08:54:36;99716.19;;;19.58;57.95
49709;BME280;35601;55.902;13.606;2023-07-29T08:57:01;99715.20;;;19.87;57.78
49709;BME280;35601;55.902;13.606;2023-07-29T08:59:28;99712.79;;;20.09;55.94
49709;BME280;35601;55.902;13.606;2023-07-29T09:01:52;99709.23;;;20.26;56.77
49709;BME280;35601;55.902;13.606;2023-07-29T09:04:17;99705.49;;;20.74;58.54
49709;BME280;35601;55.902;13.606;2023-07-29T09:06:43;99700.97;;;20.96;56.03
49709;BME280;35601;55.902;13.606;2023-07-29T09:09:08;99703.56;;;20.98;55.27
49709;BME280;35601;55.902;13.606;2023-07-29T09:11:32;99700.58;;;21.14;54.08
49709;BME280;35601;55.902;13.606;2023-07-29T09:13:57;99691.69;;;21.12;54.31
49709;BME280;35601;55.902;13.606;2023-07-29T09:16:22;99685.35;;;21.44;52.42
49709;BME280;35601;55.902;13.606;2023-07-29T09:18:47;99679.72;;;21.59;53.34
49709;BME280;35601;55.902;13.606;2023-07-29T09:21:12;99681.64;;;21.09;54.16
49709;BME280;35601;55.902;13.606;2023-07-29T09:23:39;99682.88;;;21.67;52.69
49709;BME280;35601;55.902;13.606;2023-07-29T09:26:03;99677.64;;;22.03;51.07
49709;BME280;35601;55.902;13.606;2023-07-29T09:28:33;99679.31;;;22.06;51.59
49709;BME280;35601;55.902;13.606;2023-07-29T09:30:52;99683.09;;;22.20;53.60
49709;BME280;35601;55.902;13.606;2023-07-29T09:33:18;99686.51;;;22.23;52.40
49709;BME280;35601;55.902;13.606;2023-07-29T09:35:44;99688.71;;;22.39;52.09
49709;BME280;35601;55.902;13.606;2023-07-29T09:38:08;99689.65;;;22.31;52.61
49709;BME280;35601;55.902;13.606;2023-07-29T09:40:35;99687.12;;;21.86;53.12
49709;BME280;35601;55.902;13.606;2023-07-29T09:42:58;99688.31;;;21.70;52.68
49709;BME280;35601;55.902;13.606;2023-07-29T09:45:25;99687.66;;;21.21;54.12
49709;BME280;35601;55.902;13.606;2023-07-29T09:47:49;99686.02;;;21.70;53.79
49709;BME280;35601;55.902;13.606;2023-07-29T09:50:14;99684.75;;;21.47;53.78
49709;BME280;35601;55.902;13.606;2023-07-29T09:52:39;99683.67;;;21.59;54.01
49709;BME280;35601;55.902;13.606;2023-07-29T09:55:04;99681.86;;;21.13;54.08
49709;BME280;35601;55.902;13.606;2023-07-29T09:57:30;99680.28;;;21.42;54.75
49709;BME280;35601;55.902;13.606;2023-07-29T09:59:54;99678.36;;;21.34;54.54
49709;BME280;35601;55.902;13.606;2023-07-29T10:02:20;99681.87;;;21.32;55.51
49709;BME280;35601;55.902;13.606;2023-07-29T10:04:45;99682.38;;;21.31;57.57
49709;BME280;35601;55.902;13.606;2023-07-29T10:07:10;99681.75;;;21.30;56.63
49709;BME280;35601;55.902;13.606;2023-07-29T10:09:34;99682.85;;;21.60;57.24
49709;BME280;35601;55.902;13.606;2023-07-29T10:11:59;99680.44;;;21.32;57.84
49709;BME280;35601;55.902;13.606;2023-07-29T10:14:27;99680.59;;;21.25;58.37
49709;BME280;35601;55.902;13.606;2023-07-29T10:16:50;99680.76;;;21.04;55.80
49709;BME280;35601;55.902;13.606;2023-07-29T10:19:15;99673.20;;;21.01;56.18
49709;BME280;35601;55.902;13.606;2023-07-29T10:21:42;99679.01;;;21.21;56.90
49709;BME280;35601;55.902;13.606;2023-07-29T10:24:08;99676.84;;;20.83;56.35
49709;BME280;35601;55.902;13.606;2023-07-29T10:26:31;99672.76;;;21.43;58.49
49709;BME280;35601;55.902;13.606;2023-07-29T10:28:57;99672.55;;;21.45;56.90
49709;BME280;35601;55.902;13.606;2023-07-29T10:31:20;99666.10;;;21.61;57.34
49709;BME280;35601;55.902;13.606;2023-07-29T10:33:45;99665.66;;;21.51;57.57
49709;BME280;35601;55.902;13.606;2023-07-29T10:36:10;99665.95;;;21.05;58.08
49709;BME280;35601;55.902;13.606;2023-07-29T10:38:35;99664.47;;;21.31;58.36
49709;BME280;35601;55.902;13.606;2023-07-29T10:41:00;99663.87;;;21.12;57.25
49709;BME280;35601;55.902;13.606;2023-07-29T10:43:27;99657.86;;;21.34;58.13
49709;BME280;35601;55.902;13.606;2023-07-29T10:45:50;99654.59;;;21.35;58.84
49709;BME280;35601;55.902;13.606;2023-07-29T10:50:40;99656.26;;;20.90;59.28
49709;BME280;35601;55.902;13.606;2023-07-29T10:53:05;99658.60;;;20.86;58.14
49709;BME280;35601;55.902;13.606;2023-07-29T10:55:33;99659.57;;;21.08;60.96
49709;BME280;35601;55.902;13.606;2023-07-29T10:58:06;99656.04;;;21.21;58.37
49709;BME280;35601;55.902;13.606;2023-07-29T11:00:21;99658.02;;;21.25;58.16
49709;BME280;35601;55.902;13.606;2023-07-29T11:05:17;99655.18;;;20.97;57.79
49709;BME280;35601;55.902;13.606;2023-07-29T11:07:43;99652.47;;;21.47;57.90
49709;BME280;35601;55.902;13.606;2023-07-29T11:10:02;99650.27;;;21.34;58.41
49709;BME280;35601;55.902;13.606;2023-07-29T11:12:35;99652.60;;;21.59;59.99
49709;BME280;35601;55.902;13.606;2023-07-29T11:14:52;99655.32;;;21.45;57.80
49709;BME280;35601;55.902;13.606;2023-07-29T11:17:17;99651.39;;;20.99;58.47
49709;BME280;35601;55.902;13.606;2023-07-29T11:19:42;99648.50;;;21.31;59.58
49709;BME280;35601;55.902;13.606;2023-07-29T11:22:07;99645.58;;;21.61;59.00
49709;BME280;35601;55.902;13.606;2023-07-29T11:24:32;99645.29;;;21.44;58.44
49709;BME280;35601;55.902;13.606;2023-07-29T11:26:57;99645.24;;;21.43;59.75
49709;BME280;35601;55.902;13.606;2023-07-29T11:29:22;99642.44;;;21.55;60.14
49709;BME280;35601;55.902;13.606;2023-07-29T11:31:47;99639.70;;;21.59;60.17
49709;BME280;35601;55.902;13.606;2023-07-29T11:34:12;99632.77;;;21.92;58.48
49709;BME280;35601;55.902;13.606;2023-07-29T11:36:37;99628.82;;;21.97;56.91
49709;BME280;35601;55.902;13.606;2023-07-29T11:39:09;99627.73;;;21.85;57.55
49709;BME280;35601;55.902;13.606;2023-07-29T11:41:27;99627.66;;;21.59;57.80
49709;BME280;35601;55.902;13.606;2023-07-29T11:43:53;99623.43;;;21.82;57.81
49709;BME280;35601;55.902;13.606;2023-07-29T11:46:21;99629.11;;;21.44;58.45
49709;BME280;35601;55.902;13.606;2023-07-29T11:48:44;99632.31;;;21.38;59.51
49709;BME280;35601;55.902;13.606;2023-07-29T11:51:08;99631.39;;;21.44;59.35
49709;BME280;35601;55.902;13.606;2023-07-29T11:53:33;99623.91;;;21.57;60.16
49709;BME280;35601;55.902;13.606;2023-07-29T11:55:58;99621.48;;;21.51;60.17
49709;BME280;35601;55.902;13.606;2023-07-29T11:58:23;99616.74;;;21.68;62.13
49709;BME280;35601;55.902;13.606;2023-07-29T12:00:48;99616.75;;;21.86;60.89
49709;BME280;35601;55.902;13.606;2023-07-29T12:03:13;99612.72;;;21.56;58.53
49709;BME280;35601;55.902;13.606;2023-07-29T12:05:38;99603.02;;;22.10;56.55
49709;BME280;35601;55.902;13.606;2023-07-29T12:08:04;99599.86;;;22.30;56.84
49709;BME280;35601;55.902;13.606;2023-07-29T12:10:28;99598.41;;;22.32;57.18
49709;BME280;35601;55.902;13.606;2023-07-29T12:12:53;99596.11;;;22.51;58.28
49709;BME280;35601;55.902;13.606;2023-07-29T12:15:24;99593.48;;;22.06;56.59
49709;BME280;35601;55.902;13.606;2023-07-29T12:17:43;99592.74;;;22.23;56.41
49709;BME280;35601;55.902;13.606;2023-07-29T12:20:10;99590.41;;;21.97;56.58
49709;BME280;35601;55.902;13.606;2023-07-29T12:22:34;99587.37;;;22.34;56.11
49709;BME280;35601;55.902;13.606;2023-07-29T12:24:59;99585.49;;;22.58;55.57
49709;BME280;35601;55.902;13.606;2023-07-29T12:27:24;99587.80;;;22.76;53.65
49709;BME280;35601;55.902;13.606;2023-07-29T12:29:51;99593.09;;;22.62;54.67
49709;BME280;35601;55.902;13.606;2023-07-29T12:32:14;99590.34;;;22.64;55.01
49709;BME280;35601;55.902;13.606;2023-07-29T12:34:39;99592.76;;;22.54;54.24
49709;BME280;35601;55.902;13.606;2023-07-29T12:37:05;99596.45;;;22.59;55.27
49709;BME280;35601;55.902;13.606;2023-07-29T12:39:30;99597.97;;;22.26;56.29
49709;BME280;35601;55.902;13.606;2023-07-29T12:41:55;99596.17;;;22.12;54.63
49709;BME280;35601;55.902;13.606;2023-07-29T12:44:19;99594.57;;;22.19;55.13
49709;BME280;35601;55.902;13.606;2023-07-29T12:46:44;99590.56;;;22.62;55.00